createdAt,value
2023-01-13T00:00:21.726Z,4.30
2023-01-13T00:02:52.237Z,4.20
2023-01-13T00:05:22.594Z,6.30
2023-01-13T00:07:53.288Z,5.10
2023-01-13T00:10:23.686Z,5.10
2023-01-13T00:12:53.981Z,4.20
2023-01-13T00:15:24.286Z,3.80
2023-01-13T00:17:54.763Z,3.70
2023-01-13T00:20:25.480Z,4.10
2023-01-13T00:22:56.784Z,3.10
2023-01-13T00:25:27.055Z,3.70
2023-01-13T00:27:57.393Z,4.90
2023-01-13T00:30:27.687Z,2.90
2023-01-13T00:32:58.087Z,3.40
2023-01-13T00:35:28.384Z,6.80
2023-01-13T00:37:58.724Z,4.40
2023-01-13T00:40:28.970Z,3.50
2023-01-13T00:43:17.052Z,4.00
2023-01-13T00:45:47.368Z,3.80
2023-01-13T00:48:17.626Z,7.70
2023-01-13T00:50:48.341Z,4.60
2023-01-13T00:53:18.680Z,6.20
2023-01-13T00:55:49.476Z,6.80
2023-01-13T00:58:19.851Z,2.20
2023-01-13T01:00:51.739Z,3.40
2023-01-13T01:03:22.248Z,4.40
2023-01-13T01:05:52.466Z,4.30
2023-01-13T01:08:23.139Z,5.10
2023-01-13T01:11:03.210Z,3.80
2023-01-13T01:13:34.275Z,3.90
2023-01-13T01:16:07.874Z,5.70
2023-01-13T01:18:40.424Z,3.30
2023-01-13T01:21:12.114Z,1.90
2023-01-13T01:23:42.979Z,4.90
2023-01-13T01:26:18.359Z,3.60
2023-01-13T01:28:49.682Z,3.90
2023-01-13T01:33:50.088Z,6.60
2023-01-13T01:36:22.562Z,2.70
2023-01-13T01:38:53.129Z,7.40
2023-01-13T01:41:25.433Z,4.90
2023-01-13T01:44:02.661Z,2.90
2023-01-13T01:46:35.506Z,6.00
2023-01-13T01:49:15.121Z,7.50
2023-01-13T01:51:47.885Z,5.30
2023-01-13T01:54:25.092Z,3.90
2023-01-13T01:56:58.484Z,4.30
2023-01-13T01:59:33.051Z,4.20
2023-01-13T02:02:03.855Z,1.90
2023-01-13T02:04:40.066Z,5.40
2023-01-13T02:07:10.920Z,5.90
2023-01-13T02:09:41.188Z,4.60
2023-01-13T02:12:29.331Z,3.40
2023-01-13T02:15:03.382Z,3.40
2023-01-13T02:17:54.206Z,4.10
2023-01-13T02:20:58.227Z,4.90
2023-01-13T02:24:13.685Z,3.80
2023-01-13T02:27:17.726Z,5.50
2023-01-13T02:30:19.335Z,6.80
2023-01-13T02:33:00.312Z,5.20
2023-01-13T02:35:37.667Z,4.00
2023-01-13T02:38:10.017Z,4.50
2023-01-13T02:40:47.476Z,3.80
2023-01-13T02:43:42.543Z,4.90
2023-01-13T02:46:18.870Z,4.70
2023-01-13T02:48:52.775Z,3.90
2023-01-13T02:51:27.866Z,4.20
2023-01-13T02:54:03.250Z,3.90
2023-01-13T02:56:35.627Z,2.80
2023-01-13T02:59:07.358Z,4.40
2023-01-13T03:01:37.787Z,5.10
2023-01-13T03:04:15.535Z,3.70
2023-01-13T03:06:54.387Z,4.80
2023-01-13T03:09:30.885Z,3.40
2023-01-13T03:12:11.592Z,2.50
2023-01-13T03:14:49.688Z,1.60
2023-01-13T03:17:28.360Z,4.30
2023-01-13T03:20:07.425Z,4.60
2023-01-13T03:22:44.827Z,4.60
2023-01-13T03:25:23.644Z,3.90
2023-01-13T03:27:58.095Z,4.80
2023-01-13T03:30:34.904Z,2.40
2023-01-13T03:33:12.593Z,3.00
2023-01-13T03:35:46.485Z,5.00
2023-01-13T03:38:22.233Z,3.00
2023-01-13T03:40:55.807Z,4.80
2023-01-13T03:43:47.752Z,3.40
2023-01-13T03:46:24.869Z,3.20
2023-01-13T03:48:58.781Z,2.80
2023-01-13T03:51:32.841Z,2.00
2023-01-13T03:54:09.082Z,4.70
2023-01-13T03:56:44.064Z,4.40
2023-01-13T03:59:18.269Z,4.00
2023-01-13T04:01:55.609Z,4.50
2023-01-13T04:04:31.349Z,6.50
2023-01-13T04:07:11.474Z,5.70
2023-01-13T04:09:56.705Z,2.70
2023-01-13T04:12:51.034Z,3.30
2023-01-13T04:15:23.874Z,3.10
2023-01-13T04:17:54.980Z,3.30
2023-01-13T04:20:25.349Z,3.80
2023-01-13T04:22:55.724Z,2.90
2023-01-13T04:25:26.061Z,3.30
2023-01-13T04:27:56.503Z,5.00
2023-01-13T04:30:26.840Z,4.10
2023-01-13T04:32:57.251Z,3.50
2023-01-13T04:35:27.646Z,2.70
2023-01-13T04:37:58.488Z,2.80
2023-01-13T04:40:28.971Z,2.70
2023-01-13T04:42:59.458Z,3.00
2023-01-13T04:45:29.941Z,3.00
2023-01-13T04:48:00.666Z,5.00
2023-01-13T04:50:31.366Z,4.80
2023-01-13T04:53:01.903Z,2.10
2023-01-13T04:55:32.759Z,1.60
2023-01-13T04:58:07.504Z,5.20
2023-01-13T05:00:38.728Z,3.70
2023-01-13T05:03:09.150Z,2.50
2023-01-13T05:05:39.587Z,2.10
2023-01-13T05:08:10.065Z,2.20
2023-01-13T05:10:40.462Z,3.20
2023-01-13T05:13:30.004Z,2.90
2023-01-13T05:16:20.395Z,3.60
2023-01-13T05:18:51.315Z,5.30
2023-01-13T05:21:39.173Z,3.80
2023-01-13T05:24:28.645Z,3.40
2023-01-13T05:26:59.102Z,5.20
2023-01-13T05:29:29.508Z,1.80
2023-01-13T05:32:02.592Z,2.40
2023-01-13T05:34:34.764Z,3.10
2023-01-13T05:37:07.358Z,4.50
2023-01-13T05:39:51.870Z,1.70
2023-01-13T05:42:40.081Z,3.40
2023-01-13T05:45:12.271Z,2.90
2023-01-13T05:47:42.910Z,2.30
2023-01-13T05:50:13.879Z,4.00
2023-01-13T05:52:44.445Z,1.70
2023-01-13T05:55:15.369Z,4.30
2023-01-13T05:57:45.781Z,3.00
2023-01-13T06:00:30.413Z,5.70
2023-01-13T06:03:01.005Z,4.90
2023-01-13T06:05:31.691Z,4.00
2023-01-13T06:08:03.840Z,2.30
2023-01-13T06:10:34.804Z,2.30
2023-01-13T06:13:07.455Z,2.30
2023-01-13T06:15:37.893Z,5.30
2023-01-13T06:18:08.525Z,3.20
2023-01-13T06:20:39.188Z,3.90
2023-01-13T06:23:12.629Z,2.50
2023-01-13T06:25:52.813Z,3.20
2023-01-13T06:28:23.470Z,5.60
2023-01-13T06:30:59.789Z,3.00
2023-01-13T06:33:34.688Z,4.90
2023-01-13T06:36:12.147Z,4.20
2023-01-13T06:38:47.037Z,5.30
2023-01-13T06:41:18.183Z,3.10
2023-01-13T06:43:48.720Z,2.00
2023-01-13T06:46:19.276Z,2.70
2023-01-13T06:48:49.908Z,3.80
2023-01-13T06:51:20.242Z,1.80
2023-01-13T06:53:50.926Z,1.90
2023-01-13T06:56:21.667Z,4.10
2023-01-13T06:58:52.148Z,3.30
2023-01-13T07:01:22.821Z,6.70
2023-01-13T07:03:53.577Z,4.50
2023-01-13T07:06:24.110Z,5.20
2023-01-13T07:08:57.359Z,5.80
2023-01-13T07:11:27.817Z,3.00
2023-01-13T07:14:16.200Z,4.90
2023-01-13T07:16:46.776Z,2.80
2023-01-13T07:19:23.294Z,2.90
2023-01-13T07:21:54.392Z,6.80
2023-01-13T07:24:24.945Z,3.90
2023-01-13T07:26:55.395Z,3.80
2023-01-13T07:29:28.202Z,5.20
2023-01-13T07:31:58.877Z,5.60
2023-01-13T07:34:29.260Z,3.80
2023-01-13T07:36:59.940Z,2.70
2023-01-13T07:39:30.366Z,2.10
2023-01-13T07:42:18.954Z,4.10
2023-01-13T07:44:49.393Z,3.10
2023-01-13T07:47:23.272Z,5.10
2023-01-13T07:49:53.573Z,2.40
2023-01-13T07:52:23.986Z,2.90
2023-01-13T07:54:54.303Z,2.50
2023-01-13T07:57:24.961Z,2.60
2023-01-13T07:59:56.501Z,3.30
2023-01-13T08:02:27.164Z,6.50
2023-01-13T08:04:58.013Z,5.80
2023-01-13T08:07:28.404Z,13.70
2023-01-13T08:09:59.039Z,10.50
2023-01-13T08:12:52.350Z,4.90
2023-01-13T08:15:27.532Z,6.00
2023-01-13T08:17:59.405Z,5.40
2023-01-13T08:20:29.938Z,4.70
2023-01-13T08:23:01.598Z,4.80
2023-01-13T08:25:33.149Z,3.70
2023-01-13T08:28:04.065Z,5.10
2023-01-13T08:30:34.644Z,5.30
2023-01-13T08:33:09.103Z,4.50
2023-01-13T08:35:40.718Z,2.90
2023-01-13T08:38:11.623Z,5.00
2023-01-13T08:40:46.426Z,3.30
2023-01-13T08:43:17.088Z,3.60
2023-01-13T08:45:47.521Z,7.50
2023-01-13T08:48:18.065Z,6.90
2023-01-13T08:50:48.709Z,6.50
2023-01-13T08:53:19.231Z,5.30
2023-01-13T08:55:49.916Z,3.70
2023-01-13T08:58:20.742Z,4.00
2023-01-13T09:00:51.134Z,5.90
2023-01-13T09:03:21.697Z,3.70
2023-01-13T09:05:52.305Z,5.00
2023-01-13T09:08:22.935Z,4.60
2023-01-13T09:10:53.641Z,5.40
2023-01-13T09:13:24.334Z,4.70
2023-01-13T09:15:57.017Z,6.70
2023-01-13T09:18:27.646Z,4.00
2023-01-13T09:21:00.028Z,4.00
2023-01-13T09:23:30.637Z,5.80
2023-01-13T09:26:01.303Z,4.20
2023-01-13T09:28:32.670Z,5.90
2023-01-13T09:33:51.579Z,5.10
2023-01-13T09:36:22.395Z,5.30
2023-01-13T09:38:53.057Z,5.70
2023-01-13T09:41:39.423Z,3.10
2023-01-13T09:44:18.757Z,7.60
2023-01-13T09:46:53.882Z,4.10
2023-01-13T09:49:32.092Z,6.90
2023-01-13T09:52:10.697Z,6.20
2023-01-13T09:54:44.941Z,4.40
2023-01-13T09:57:17.591Z,4.50
2023-01-13T09:59:49.685Z,1.60
2023-01-13T10:02:33.387Z,3.30
2023-01-13T10:05:16.535Z,6.20
2023-01-13T10:07:52.129Z,7.30
2023-01-13T10:10:31.817Z,6.70
2023-01-13T10:13:15.406Z,5.20
2023-01-13T10:15:55.898Z,5.80
2023-01-13T10:18:36.148Z,5.10
2023-01-13T10:21:21.220Z,5.80
2023-01-13T10:24:02.719Z,8.10
2023-01-13T10:29:26.300Z,9.50
2023-01-13T10:31:59.007Z,7.90
2023-01-13T10:34:31.119Z,4.40
2023-01-13T10:37:06.335Z,5.90
2023-01-13T10:39:44.437Z,6.20
2023-01-13T10:42:18.775Z,7.90
2023-01-13T10:44:55.049Z,8.00
2023-01-13T10:47:29.131Z,6.00
2023-01-13T10:50:18.581Z,7.80
2023-01-13T10:53:03.800Z,8.10
2023-01-13T10:55:37.301Z,5.50
2023-01-13T10:58:20.423Z,7.30
2023-01-13T11:00:59.660Z,11.70
2023-01-13T11:03:41.370Z,7.50
2023-01-13T11:06:20.315Z,6.10
2023-01-13T11:08:55.197Z,12.10
2023-01-13T11:11:39.340Z,7.20
2023-01-13T11:14:39.221Z,9.00
2023-01-13T11:17:40.451Z,10.20
2023-01-13T11:20:20.286Z,8.70
2023-01-13T11:22:56.618Z,12.90
2023-01-13T11:25:41.440Z,11.30
2023-01-13T11:28:24.976Z,7.80
2023-01-13T11:31:02.724Z,7.20
2023-01-13T11:33:46.509Z,9.00
2023-01-13T11:36:22.884Z,9.40
2023-01-13T11:38:56.363Z,12.00
2023-01-13T11:41:40.535Z,8.90
2023-01-13T11:44:19.167Z,6.20
2023-01-13T11:46:52.146Z,8.00
2023-01-13T11:49:30.609Z,9.10
2023-01-13T11:52:07.631Z,11.10
2023-01-13T11:55:17.675Z,8.60
2023-01-13T11:58:05.403Z,7.60
2023-01-13T12:01:13.067Z,10.90
2023-01-13T12:03:49.219Z,9.90
2023-01-13T12:06:36.255Z,10.10
2023-01-13T12:09:21.210Z,11.00
2023-01-13T12:12:27.821Z,10.70
2023-01-13T12:15:27.166Z,5.20
2023-01-13T12:18:09.611Z,9.40
2023-01-13T12:20:49.325Z,6.40
2023-01-13T12:23:27.710Z,8.70
2023-01-13T12:26:05.924Z,10.10
2023-01-13T12:28:45.385Z,8.50
2023-01-13T12:31:18.928Z,8.10
2023-01-13T12:34:01.742Z,8.00
2023-01-13T12:36:42.846Z,9.40
2023-01-13T12:39:25.836Z,10.40
2023-01-13T12:42:18.463Z,8.30
2023-01-13T12:45:23.712Z,6.10
2023-01-13T12:47:54.462Z,8.60
2023-01-13T12:53:42.145Z,10.70
2023-01-13T12:56:45.386Z,9.90
2023-01-13T12:59:51.344Z,7.20
2023-01-13T13:03:06.842Z,8.80
2023-01-13T13:05:50.643Z,5.80
2023-01-13T13:08:40.989Z,5.70
2023-01-13T13:11:58.198Z,7.50
2023-01-13T13:15:04.412Z,5.90
2023-01-13T13:18:21.552Z,6.40
2023-01-13T13:21:08.919Z,6.00
2023-01-13T13:24:17.598Z,5.60
2023-01-13T13:26:48.649Z,6.00
2023-01-13T13:29:41.102Z,6.70
2023-01-13T13:32:39.253Z,5.70
2023-01-13T13:35:24.876Z,5.60
2023-01-13T13:38:27.779Z,6.40
2023-01-13T13:41:18.750Z,5.40
2023-01-13T13:44:09.511Z,10.30
2023-01-13T13:46:49.535Z,5.70
2023-01-13T13:49:22.920Z,6.90
2023-01-13T13:52:22.340Z,10.10
2023-01-13T13:54:59.935Z,5.60
2023-01-13T13:57:38.652Z,7.60
2023-01-13T14:00:26.743Z,7.70
2023-01-13T14:03:02.374Z,8.70
2023-01-13T14:06:01.773Z,7.60
2023-01-13T14:08:35.061Z,7.10
2023-01-13T14:11:28.737Z,3.60
2023-01-13T14:14:18.311Z,9.10
2023-01-13T14:16:52.261Z,7.30
2023-01-13T14:19:31.548Z,8.50
2023-01-13T14:22:04.151Z,6.10
2023-01-13T14:27:28.618Z,6.90
2023-01-13T14:30:18.409Z,4.80
2023-01-13T14:32:50.845Z,10.60
2023-01-13T14:35:31.043Z,8.00
2023-01-13T14:39:28.250Z,6.20
2023-01-13T14:42:17.605Z,4.60
2023-01-13T14:49:02.542Z,4.50
2023-01-13T14:51:46.879Z,7.40
2023-01-13T14:54:50.059Z,6.50
2023-01-13T14:57:41.928Z,8.90
2023-01-13T15:00:25.883Z,4.10
2023-01-13T15:03:19.570Z,4.70
2023-01-13T15:05:54.467Z,5.10
2023-01-13T15:08:38.580Z,8.70
2023-01-13T15:11:30.693Z,5.50
2023-01-13T15:14:59.718Z,8.20
2023-01-13T15:17:51.662Z,10.40
2023-01-13T15:20:35.409Z,9.10
2023-01-13T15:23:06.220Z,7.60
2023-01-13T15:25:42.071Z,6.30
2023-01-13T15:28:26.917Z,7.80
2023-01-13T15:31:07.963Z,8.50
2023-01-13T15:33:49.158Z,6.70
2023-01-13T15:36:36.861Z,7.20
2023-01-13T15:39:15.838Z,6.90
2023-01-13T15:42:14.445Z,7.70
2023-01-13T15:45:23.413Z,9.60
2023-01-13T15:48:14.727Z,10.00
2023-01-13T15:51:05.868Z,8.50
2023-01-13T15:53:45.561Z,6.40
2023-01-13T15:56:31.190Z,7.80
2023-01-13T15:59:01.824Z,12.80
2023-01-13T16:01:35.653Z,8.60
2023-01-13T16:04:12.735Z,10.00
2023-01-13T16:06:43.676Z,4.80
2023-01-13T16:09:17.043Z,6.60
2023-01-13T16:12:00.502Z,4.80
2023-01-13T16:14:30.975Z,9.10
2023-01-13T16:17:18.596Z,12.00
2023-01-13T16:19:50.221Z,9.60
2023-01-13T16:22:25.460Z,8.90
2023-01-13T16:25:08.646Z,8.50
2023-01-13T16:27:42.059Z,7.40
2023-01-13T16:30:25.316Z,9.70
2023-01-13T16:33:06.285Z,8.40
2023-01-13T16:36:11.994Z,8.40
2023-01-13T16:38:43.759Z,10.80
2023-01-13T16:41:14.507Z,8.30
2023-01-13T16:43:56.846Z,9.80
2023-01-13T16:46:33.308Z,7.60
2023-01-13T16:49:07.348Z,10.50
2023-01-13T16:51:37.828Z,11.00
2023-01-13T16:54:28.473Z,7.80
2023-01-13T16:57:01.442Z,7.40
2023-01-13T16:59:32.305Z,7.00
2023-01-13T17:02:24.731Z,9.10
2023-01-13T17:04:58.037Z,10.70
2023-01-13T17:07:32.989Z,7.80
2023-01-13T17:10:08.851Z,9.10
2023-01-13T17:12:39.519Z,7.40
2023-01-13T17:15:30.064Z,10.10
2023-01-13T17:18:00.830Z,8.90
2023-01-13T17:20:34.083Z,9.70
2023-01-13T17:23:24.854Z,7.10
2023-01-13T17:26:32.122Z,8.70
2023-01-13T17:29:25.902Z,7.10
2023-01-13T17:31:59.036Z,9.40
2023-01-13T17:34:40.187Z,6.20
2023-01-13T17:37:14.910Z,9.10
2023-01-13T17:39:48.744Z,7.50
2023-01-13T17:42:40.657Z,7.40
2023-01-13T17:45:32.336Z,7.70
2023-01-13T17:48:23.328Z,8.40
2023-01-13T17:51:06.884Z,7.90
2023-01-13T17:53:56.833Z,10.10
2023-01-13T17:56:30.579Z,7.90
2023-01-13T17:59:15.068Z,13.00
2023-01-13T18:02:05.826Z,9.10
2023-01-13T18:04:45.711Z,6.90
2023-01-13T18:07:26.810Z,7.90
2023-01-13T18:10:18.025Z,7.90
2023-01-13T18:12:48.551Z,11.80
2023-01-13T18:15:39.331Z,7.60
2023-01-13T18:18:12.741Z,7.30
2023-01-13T18:21:20.147Z,8.90
2023-01-13T18:24:18.695Z,9.00
2023-01-13T18:27:23.061Z,7.10
2023-01-13T18:30:06.677Z,10.40
2023-01-13T18:32:50.455Z,10.60
2023-01-13T18:35:23.669Z,8.40
2023-01-13T18:37:57.197Z,10.40
2023-01-13T18:40:31.001Z,11.40
2023-01-13T18:43:01.556Z,8.10
2023-01-13T18:45:33.349Z,8.70
2023-01-13T18:48:14.007Z,12.00
2023-01-13T18:50:44.701Z,8.90
2023-01-13T18:53:15.480Z,10.00
2023-01-13T18:55:45.983Z,8.40
2023-01-13T18:58:33.967Z,9.00
2023-01-13T19:01:49.129Z,7.90
2023-01-13T19:04:18.716Z,10.20
2023-01-13T19:06:52.011Z,9.10
2023-01-13T19:09:43.140Z,9.20
2023-01-13T19:12:23.562Z,8.70
2023-01-13T19:14:54.763Z,10.10
2023-01-13T19:17:46.781Z,10.30
2023-01-13T19:20:22.736Z,12.00
2023-01-13T19:22:56.455Z,9.10
2023-01-13T19:25:27.127Z,9.40
2023-01-13T19:28:17.808Z,9.30
2023-01-13T19:30:48.552Z,7.40
2023-01-13T19:33:21.876Z,9.90
2023-01-13T19:35:57.086Z,11.10
2023-01-13T19:38:30.797Z,8.90
2023-01-13T19:41:32.720Z,10.70
2023-01-13T19:44:23.115Z,8.60
2023-01-13T19:47:09.171Z,10.90
2023-01-13T19:50:03.682Z,9.10
2023-01-13T19:52:54.971Z,11.10
2023-01-13T19:55:30.327Z,7.50
2023-01-13T19:58:14.539Z,7.90
2023-01-13T20:01:16.224Z,7.40
2023-01-13T20:03:47.814Z,5.80
2023-01-13T20:06:30.157Z,10.60
2023-01-13T20:09:01.178Z,8.10
2023-01-13T20:11:34.640Z,6.70
2023-01-13T20:14:29.547Z,9.00
2023-01-13T20:17:22.039Z,11.60
2023-01-13T20:20:01.905Z,12.30
2023-01-13T20:22:52.949Z,9.60
2023-01-13T20:25:23.834Z,6.90
2023-01-13T20:28:18.373Z,8.50
2023-01-13T20:30:57.515Z,9.00
2023-01-13T20:33:39.738Z,9.60
2023-01-13T20:36:33.470Z,8.50
2023-01-13T20:39:09.523Z,5.80
2023-01-13T20:41:57.981Z,12.80
2023-01-13T20:44:29.046Z,9.80
2023-01-13T20:47:09.793Z,13.00
2023-01-13T20:50:01.568Z,7.50
2023-01-13T20:52:44.943Z,8.60
2023-01-13T20:55:23.255Z,9.00
2023-01-13T20:58:14.209Z,10.00
2023-01-13T21:00:59.281Z,7.80
2023-01-13T21:04:36.132Z,9.80
2023-01-13T21:06:49.882Z,8.10
2023-01-13T21:09:24.485Z,10.80
2023-01-13T21:12:23.289Z,9.50
2023-01-13T21:15:22.061Z,7.20
2023-01-13T21:18:13.768Z,11.30
2023-01-13T21:21:11.719Z,8.90
2023-01-13T21:24:02.483Z,8.00
2023-01-13T21:26:43.328Z,9.00
2023-01-13T21:29:25.278Z,8.10
2023-01-13T21:32:07.768Z,9.50
2023-01-13T21:37:29.740Z,12.90
2023-01-13T21:40:03.635Z,9.10
2023-01-13T21:43:03.714Z,9.50
2023-01-13T21:46:05.710Z,9.30
2023-01-13T21:48:56.649Z,13.10
2023-01-13T21:51:30.875Z,11.70
2023-01-13T21:54:10.705Z,13.00
2023-01-13T21:57:02.225Z,16.20
2023-01-13T21:59:36.921Z,9.30
2023-01-13T22:02:26.012Z,10.50
2023-01-13T22:05:18.929Z,11.20
2023-01-13T22:07:53.057Z,8.20
2023-01-13T22:10:28.616Z,12.10
2023-01-13T22:13:21.687Z,11.00
2023-01-13T22:16:08.965Z,9.70
2023-01-13T22:18:46.758Z,11.50
2023-01-13T22:21:20.052Z,7.90
2023-01-13T22:23:50.715Z,9.80
2023-01-13T22:26:33.933Z,9.40
2023-01-13T22:29:04.704Z,8.70
2023-01-13T22:31:43.620Z,8.80
2023-01-13T22:34:15.258Z,8.40
2023-01-13T22:36:46.224Z,10.30
2023-01-13T22:39:20.981Z,8.40
2023-01-13T22:41:51.670Z,10.80
2023-01-13T22:44:26.114Z,10.80
2023-01-13T22:47:08.699Z,10.10
2023-01-13T22:49:39.563Z,11.60
2023-01-13T22:52:10.207Z,9.90
2023-01-13T22:54:40.916Z,10.80
2023-01-13T22:57:24.029Z,10.10
2023-01-13T22:59:54.947Z,10.30
2023-01-13T23:02:25.631Z,11.40
2023-01-13T23:05:08.050Z,8.60
2023-01-13T23:07:48.596Z,8.80
2023-01-13T23:10:19.616Z,16.40
2023-01-13T23:13:03.902Z,11.40
2023-01-13T23:15:38.760Z,10.50
2023-01-13T23:18:13.031Z,8.90
2023-01-13T23:20:52.331Z,11.50
2023-01-13T23:23:24.425Z,7.80
2023-01-13T23:26:15.717Z,15.00
2023-01-13T23:29:08.381Z,12.90
2023-01-13T23:31:49.575Z,10.40
2023-01-13T23:34:40.236Z,11.70
2023-01-13T23:37:31.014Z,11.20
2023-01-13T23:40:13.451Z,12.30
2023-01-13T23:42:46.301Z,14.20
2023-01-13T23:45:37.642Z,13.10
2023-01-13T23:48:11.573Z,10.00
2023-01-13T23:51:04.359Z,10.30
2023-01-13T23:53:47.014Z,13.00
2023-01-13T23:56:20.201Z,11.80
2023-01-13T23:58:53.943Z,14.80
